首页
METAR-TAF:

METAR-TAF

机场 :

Philip Billard Municipal Airport

托皮卡, 堪薩斯州, 美国

纬度: 39-04-21N, 经度: 095-37-33W, 海拔: 268米

当前天气观测

该预报发布于53分钟前的17:53 UTC
风速8节,风向
温度 29°C
湿度 58%
气压 1009 hPa
能見度: 16.1公里
天空无云

METAR: KTOP 041753Z 17008KT 10SM CLR 29/20 A2980 RMK AO2 SLP080 T02890200 10294 20194 58007

时间: 13:46 (18:46 UTC)

预报

该预报发布于1小时和19分钟前的17:27 UTC
预报有效从04日的 18点(UTC)到 05日的 18点(UTC)
风速6节,风向
能見度: 10公里
少量云层高于25000英尺

TAF: KTOP 041727Z 0418/0518 18006KT P6SM FEW250

超过4000个机场的气象观测和天气预报(METAR&TAF报告)。

可查询的气象台以黄色和红色小点在地图上表示。

将鼠标移到小点上方,可查看气象台名称。

然后点击查看天气观测和预报。

如需切换地图:点击带黑十字的绿色按钮放大地图;点击带横线的绿色按钮缩小地图;或者点击绿色箭头查看邻近地区的地图。


METAR-TAF: